createdAt,value
2019-05-05T00:00:06.674Z,0.00
2019-05-05T00:02:46.303Z,0.00
2019-05-05T00:03:46.208Z,0.00
2019-05-05T00:04:46.162Z,0.00
2019-05-05T00:05:46.185Z,0.00
2019-05-05T00:06:46.143Z,0.00
2019-05-05T00:07:46.078Z,0.00
2019-05-05T00:08:46.081Z,0.00
2019-05-05T00:09:46.035Z,0.00
2019-05-05T00:10:46.060Z,0.00
2019-05-05T00:11:45.996Z,0.00
2019-05-05T00:12:45.975Z,0.00
2019-05-05T00:13:45.957Z,0.00
2019-05-05T00:14:45.964Z,0.00
2019-05-05T00:15:45.922Z,0.00
2019-05-05T00:16:45.898Z,0.00
2019-05-05T00:17:45.898Z,0.00
2019-05-05T00:18:45.854Z,0.00
2019-05-05T00:19:45.837Z,0.00
2019-05-05T00:20:45.817Z,0.00
2019-05-05T00:21:45.820Z,0.00
2019-05-05T00:22:45.783Z,0.00
2019-05-05T00:23:45.780Z,0.00
2019-05-05T00:24:45.743Z,0.00
2019-05-05T00:25:45.722Z,0.00
2019-05-05T00:26:46.133Z,0.00
2019-05-05T00:27:45.667Z,0.00
2019-05-05T00:28:45.667Z,0.00
2019-05-05T00:29:45.639Z,0.00
2019-05-05T00:30:45.608Z,0.00
2019-05-05T00:31:45.599Z,0.00
2019-05-05T00:32:45.578Z,0.00
2019-05-05T00:33:45.547Z,0.00
2019-05-05T00:34:45.530Z,0.00
2019-05-05T00:35:45.510Z,0.00
2019-05-05T00:36:45.485Z,0.00
2019-05-05T00:37:45.479Z,0.00
2019-05-05T00:38:45.455Z,0.00
2019-05-05T00:39:45.430Z,0.00
2019-05-05T00:40:45.415Z,0.00
2019-05-05T00:41:45.404Z,0.00
2019-05-05T00:42:45.634Z,0.00
2019-05-05T00:43:45.349Z,0.00
2019-05-05T00:44:45.338Z,0.00
2019-05-05T00:45:45.313Z,0.00
2019-05-05T00:46:45.291Z,0.00
2019-05-05T00:47:45.275Z,0.00
2019-05-05T00:48:45.274Z,0.00
2019-05-05T00:49:49.111Z,0.00
2019-05-05T00:50:45.211Z,0.00
2019-05-05T00:51:45.181Z,0.00
2019-05-05T00:52:45.188Z,0.00
2019-05-05T00:53:45.163Z,0.00
2019-05-05T00:54:45.127Z,0.00
2019-05-05T00:55:45.105Z,0.00
2019-05-05T00:56:45.217Z,0.00
2019-05-05T00:57:45.441Z,0.00
2019-05-05T00:58:45.063Z,0.00
2019-05-05T00:59:45.328Z,0.00
2019-05-05T01:00:45.024Z,0.00
2019-05-05T01:01:44.986Z,0.00
2019-05-05T01:02:45.018Z,0.00
2019-05-05T01:03:44.940Z,0.00
2019-05-05T01:04:44.917Z,0.00
2019-05-05T01:05:44.939Z,0.00
2019-05-05T01:06:45.096Z,0.00
2019-05-05T01:07:44.860Z,0.00
2019-05-05T01:08:44.843Z,0.00
2019-05-05T01:09:45.178Z,0.00
2019-05-05T01:10:44.798Z,0.00
2019-05-05T01:11:44.781Z,0.00
2019-05-05T01:12:45.065Z,0.00
2019-05-05T01:13:45.490Z,0.00
2019-05-05T01:14:44.897Z,0.00
2019-05-05T01:15:44.933Z,0.00
2019-05-05T01:16:45.618Z,0.00
2019-05-05T01:17:45.190Z,0.00
2019-05-05T01:18:45.124Z,0.00
2019-05-05T01:19:46.715Z,0.00
2019-05-05T01:20:44.911Z,0.00
2019-05-05T01:21:45.439Z,0.00
2019-05-05T01:22:44.891Z,0.00
2019-05-05T01:23:45.545Z,0.00
2019-05-05T01:24:45.835Z,0.00
2019-05-05T01:25:45.522Z,0.00
2019-05-05T01:26:44.705Z,0.00
2019-05-05T01:27:45.326Z,0.00
2019-05-05T01:28:44.761Z,0.00
2019-05-05T01:29:45.226Z,0.00
2019-05-05T01:30:44.545Z,0.00
2019-05-05T01:31:45.173Z,0.00
2019-05-05T01:32:44.722Z,0.00
2019-05-05T01:33:44.872Z,0.00
2019-05-05T01:34:44.921Z,0.00
2019-05-05T01:35:44.884Z,0.00
2019-05-05T01:36:45.144Z,0.00
2019-05-05T01:37:45.012Z,0.00
2019-05-05T01:38:44.765Z,0.00
2019-05-05T01:39:45.213Z,0.00
2019-05-05T01:40:44.748Z,0.00
2019-05-05T01:41:45.285Z,0.00
2019-05-05T01:42:44.723Z,0.00
2019-05-05T01:43:45.190Z,0.00
2019-05-05T01:44:45.095Z,0.00
2019-05-05T01:45:45.331Z,0.00
2019-05-05T01:46:44.546Z,0.00
2019-05-05T01:47:45.320Z,0.00
2019-05-05T01:48:44.572Z,0.00
2019-05-05T01:49:45.265Z,0.00
2019-05-05T01:50:45.297Z,0.00
2019-05-05T01:51:44.758Z,0.00
2019-05-05T01:52:45.078Z,0.00
2019-05-05T01:53:44.419Z,0.00
2019-05-05T01:54:44.858Z,0.00
2019-05-05T01:55:47.338Z,0.00
2019-05-05T02:06:49.281Z,0.00
2019-05-05T02:09:15.726Z,0.00
2019-05-05T02:10:15.205Z,0.00
2019-05-05T02:11:15.491Z,0.00
2019-05-05T02:12:13.225Z,0.00
2019-05-05T02:13:13.361Z,0.00
2019-05-05T02:14:15.472Z,0.00
2019-05-05T02:15:14.946Z,0.00
2019-05-05T02:16:14.960Z,0.00
2019-05-05T02:17:14.419Z,0.00
2019-05-05T02:18:14.844Z,0.00
2019-05-05T02:19:14.299Z,0.00
2019-05-05T02:20:14.577Z,0.00
2019-05-05T02:21:14.286Z,0.00
2019-05-05T02:22:14.688Z,0.00
2019-05-05T02:23:15.022Z,0.00
2019-05-05T02:24:14.505Z,0.00
2019-05-05T02:25:14.586Z,0.00
2019-05-05T02:26:14.730Z,0.00
2019-05-05T02:27:14.593Z,0.00
2019-05-05T02:28:14.789Z,0.00
2019-05-05T02:29:14.217Z,0.00
2019-05-05T02:32:25.983Z,0.00
2019-05-05T02:33:15.738Z,0.00
2019-05-05T03:29:33.562Z,0.00
2019-05-05T03:30:35.503Z,0.00
2019-05-05T03:32:58.528Z,0.00
2019-05-05T03:33:58.334Z,0.00
2019-05-05T03:37:09.011Z,0.00
2019-05-05T03:38:08.763Z,0.00
2019-05-05T03:39:08.709Z,0.00
2019-05-05T03:40:08.661Z,0.00
2019-05-05T03:41:08.654Z,0.00
2019-05-05T03:42:08.569Z,0.00
2019-05-05T03:43:08.542Z,0.00
2019-05-05T03:44:08.495Z,0.00
2019-05-05T03:45:08.492Z,0.00
2019-05-05T03:46:08.590Z,0.00
2019-05-05T03:49:24.260Z,0.00
2019-05-05T03:50:23.288Z,0.00
2019-05-05T03:51:24.223Z,0.00
2019-05-05T03:52:21.966Z,0.00
2019-05-05T03:53:24.422Z,0.00
2019-05-05T03:54:23.754Z,0.00
2019-05-05T03:55:21.575Z,0.00
2019-05-05T03:56:21.538Z,0.00
2019-05-05T03:57:21.470Z,0.00
2019-05-05T03:58:21.476Z,0.00
2019-05-05T03:59:21.474Z,0.00
2019-05-05T04:00:23.482Z,0.00
2019-05-05T04:01:21.372Z,0.00
2019-05-05T04:02:23.346Z,0.00
2019-05-05T04:03:21.449Z,0.00
2019-05-05T04:04:21.327Z,0.00
2019-05-05T04:05:23.447Z,0.00
2019-05-05T04:06:23.451Z,0.00
2019-05-05T04:07:21.276Z,0.00
2019-05-05T04:08:23.393Z,0.00
2019-05-05T04:09:21.237Z,0.00
2019-05-05T04:10:21.174Z,0.00
2019-05-05T04:11:21.211Z,0.00
2019-05-05T04:12:21.200Z,0.00
2019-05-05T04:13:21.204Z,0.00
2019-05-05T04:14:21.120Z,0.00
2019-05-05T04:15:21.103Z,0.00
2019-05-05T04:16:21.049Z,0.00
2019-05-05T04:17:21.055Z,0.00
2019-05-05T04:18:21.022Z,0.00
2019-05-05T04:19:21.019Z,0.00
2019-05-05T04:20:21.024Z,0.00
2019-05-05T04:40:57.434Z,11.25
2019-05-05T04:41:57.357Z,16.88
2019-05-05T04:42:57.338Z,16.88
2019-05-05T04:43:56.997Z,16.88
2019-05-05T04:44:57.155Z,16.88
2019-05-05T04:45:56.906Z,16.88
2019-05-05T04:46:56.875Z,16.88
2019-05-05T04:47:56.837Z,16.88
2019-05-05T04:48:56.826Z,16.88
2019-05-05T04:49:56.812Z,16.88
2019-05-05T04:50:56.777Z,16.88
2019-05-05T04:51:56.759Z,16.88
2019-05-05T04:52:56.734Z,16.88
2019-05-05T04:53:56.744Z,16.88
2019-05-05T04:54:56.695Z,16.88
2019-05-05T04:55:56.691Z,16.88
2019-05-05T04:56:56.664Z,16.88
2019-05-05T04:57:56.643Z,16.88
2019-05-05T04:58:56.624Z,16.88
2019-05-05T04:59:56.828Z,16.88
2019-05-05T05:03:04.879Z,16.88
2019-05-05T05:04:04.578Z,22.50
2019-05-05T05:06:09.468Z,22.50
2019-05-05T05:07:09.258Z,28.13
2019-05-05T05:08:09.231Z,28.13
2019-05-05T05:09:09.208Z,33.75
2019-05-05T05:10:09.160Z,33.75
2019-05-05T05:11:09.168Z,33.75
2019-05-05T05:12:09.120Z,39.38
2019-05-05T05:13:09.092Z,45.00
2019-05-05T05:14:09.101Z,39.38
2019-05-05T05:15:09.069Z,50.63
2019-05-05T05:16:09.046Z,50.63
2019-05-05T05:17:09.064Z,50.63
2019-05-05T05:18:09.037Z,50.63
2019-05-05T05:19:08.997Z,50.63
2019-05-05T05:20:08.954Z,50.63
2019-05-05T05:21:08.971Z,56.25
2019-05-05T05:22:08.948Z,56.25
2019-05-05T05:23:08.936Z,56.25
2019-05-05T05:24:08.894Z,56.25
2019-05-05T05:25:08.895Z,61.88
2019-05-05T05:26:08.886Z,61.88
2019-05-05T05:27:08.861Z,61.88
2019-05-05T05:28:08.815Z,61.88
2019-05-05T05:29:08.771Z,61.88
2019-05-05T05:30:08.751Z,67.50
2019-05-05T05:31:08.734Z,67.50
2019-05-05T05:32:08.786Z,67.50
2019-05-05T05:33:08.800Z,67.50
2019-05-05T05:34:08.771Z,67.50
2019-05-05T05:35:08.721Z,73.13
2019-05-05T05:36:08.696Z,61.88
2019-05-05T05:37:08.643Z,73.13
2019-05-05T05:38:08.680Z,73.13
2019-05-05T05:39:08.669Z,78.75
2019-05-05T05:40:08.666Z,78.75
2019-05-05T05:41:08.641Z,78.75
2019-05-05T05:42:08.660Z,78.75
2019-05-05T05:43:08.660Z,84.38
2019-05-05T05:44:08.556Z,84.38
2019-05-05T05:45:08.536Z,84.38
2019-05-05T05:46:08.465Z,84.38
2019-05-05T05:47:08.433Z,90.00
2019-05-05T05:48:08.416Z,90.00
2019-05-05T05:49:08.395Z,90.00
2019-05-05T05:50:08.379Z,90.00
2019-05-05T05:51:08.352Z,61.88
2019-05-05T05:52:15.966Z,95.63
2019-05-05T05:53:08.364Z,101.25
2019-05-05T05:54:08.302Z,101.25
2019-05-05T05:55:08.325Z,101.25
2019-05-05T05:56:08.284Z,101.25
2019-05-05T05:57:08.244Z,101.25
2019-05-05T05:58:08.235Z,101.25
2019-05-05T05:59:08.201Z,101.25
2019-05-05T06:00:08.209Z,112.50
2019-05-05T06:01:08.171Z,123.75
2019-05-05T06:02:11.781Z,118.13
2019-05-05T06:03:08.131Z,112.50
2019-05-05T06:04:08.166Z,101.25
2019-05-05T06:05:08.113Z,112.50
2019-05-05T06:06:08.083Z,118.13
2019-05-05T06:07:08.073Z,118.13
2019-05-05T06:08:08.043Z,118.13
2019-05-05T06:09:08.025Z,118.13
2019-05-05T06:10:21.091Z,118.13
2019-05-05T06:11:08.204Z,118.13
2019-05-05T06:12:08.076Z,118.13
2019-05-05T06:13:08.067Z,123.75
2019-05-05T06:14:08.169Z,123.75
2019-05-05T06:15:08.237Z,129.38
2019-05-05T06:16:08.133Z,129.38
2019-05-05T06:17:08.121Z,135.00
2019-05-05T06:18:08.228Z,135.00
2019-05-05T06:19:10.204Z,135.00
2019-05-05T06:20:08.170Z,135.00
2019-05-05T06:21:08.220Z,140.63
2019-05-05T06:22:08.006Z,140.63
2019-05-05T06:23:08.178Z,146.25
2019-05-05T06:24:08.158Z,146.25
2019-05-05T06:25:08.164Z,146.25
2019-05-05T06:26:07.918Z,123.75
2019-05-05T06:27:08.127Z,67.50
2019-05-05T06:28:07.940Z,146.25
2019-05-05T06:29:07.954Z,146.25
2019-05-05T06:30:08.328Z,151.88
2019-05-05T06:31:07.948Z,151.88
2019-05-05T06:32:07.950Z,157.50
2019-05-05T06:33:07.894Z,157.50
2019-05-05T06:34:07.933Z,157.50
2019-05-05T06:35:07.740Z,101.25
2019-05-05T06:36:07.804Z,157.50
2019-05-05T06:37:07.849Z,157.50
2019-05-05T06:38:07.675Z,163.13
2019-05-05T06:39:07.829Z,163.13
2019-05-05T06:40:07.631Z,163.13
2019-05-05T06:41:07.596Z,163.13
2019-05-05T06:42:07.819Z,163.13
2019-05-05T06:43:07.566Z,168.75
2019-05-05T06:44:07.676Z,168.75
2019-05-05T06:45:07.600Z,163.13
2019-05-05T06:46:07.744Z,168.75
2019-05-05T06:47:07.483Z,174.38
2019-05-05T06:48:07.526Z,174.38
2019-05-05T06:49:07.487Z,185.63
2019-05-05T06:50:07.403Z,185.63
2019-05-05T06:51:07.465Z,191.25
2019-05-05T06:52:07.394Z,191.25
2019-05-05T06:53:07.296Z,191.25
2019-05-05T06:54:07.273Z,191.25
2019-05-05T06:55:07.243Z,78.75
2019-05-05T06:56:07.241Z,196.88
2019-05-05T06:57:07.189Z,196.88
2019-05-05T06:58:07.227Z,196.88
2019-05-05T06:59:07.172Z,95.63
2019-05-05T07:00:07.156Z,129.38
2019-05-05T07:01:07.157Z,208.13
2019-05-05T07:02:07.104Z,208.13
2019-05-05T07:03:07.898Z,219.38
2019-05-05T07:04:07.087Z,191.25
2019-05-05T07:05:07.081Z,112.50
2019-05-05T07:06:07.196Z,225.00
2019-05-05T07:07:07.113Z,241.88
2019-05-05T07:08:07.362Z,225.00
2019-05-05T07:09:07.289Z,219.38
2019-05-05T07:10:07.143Z,225.00
2019-05-05T07:11:07.284Z,225.00
2019-05-05T07:12:07.119Z,241.88
2019-05-05T07:13:07.182Z,129.38
2019-05-05T07:14:06.907Z,241.88
2019-05-05T07:15:06.915Z,236.25
2019-05-05T07:16:06.878Z,230.63
2019-05-05T07:17:06.863Z,236.25
2019-05-05T07:18:06.840Z,241.88
2019-05-05T07:19:06.841Z,247.50
2019-05-05T07:20:06.811Z,247.50
2019-05-05T07:21:06.800Z,253.13
2019-05-05T07:22:06.785Z,241.88
2019-05-05T07:23:06.796Z,253.13
2019-05-05T07:24:06.758Z,253.13
2019-05-05T07:25:06.735Z,253.13
2019-05-05T07:26:06.736Z,253.13
2019-05-05T07:27:06.711Z,258.75
2019-05-05T07:28:06.754Z,264.38
2019-05-05T07:29:06.679Z,264.38
2019-05-05T07:30:06.656Z,253.13
2019-05-05T07:31:06.663Z,270.00
2019-05-05T07:32:06.635Z,270.00
2019-05-05T07:33:06.616Z,270.00
2019-05-05T07:34:06.603Z,275.63
2019-05-05T07:35:06.590Z,275.63
2019-05-05T07:36:06.595Z,151.88
2019-05-05T07:37:06.566Z,281.25
2019-05-05T07:38:06.552Z,281.25
2019-05-05T07:39:06.531Z,281.25
2019-05-05T07:40:06.515Z,286.88
2019-05-05T07:41:06.520Z,292.50
2019-05-05T07:42:06.551Z,292.50
2019-05-05T07:43:06.470Z,292.50
2019-05-05T07:44:06.473Z,292.50
2019-05-05T07:45:19.447Z,298.13
2019-05-05T07:46:06.433Z,298.13
2019-05-05T07:47:06.426Z,298.13
2019-05-05T07:48:06.422Z,303.75
2019-05-05T07:49:06.391Z,298.13
2019-05-05T07:50:06.383Z,303.75
2019-05-05T07:51:06.370Z,303.75
2019-05-05T07:52:06.396Z,309.38
2019-05-05T07:53:14.416Z,315.00
2019-05-05T07:54:06.333Z,320.63
2019-05-05T07:55:06.322Z,320.63
2019-05-05T07:56:07.726Z,320.63
2019-05-05T07:57:06.298Z,326.25
2019-05-05T07:58:06.300Z,56.25
2019-05-05T07:59:06.276Z,247.50
2019-05-05T08:00:06.254Z,337.50
2019-05-05T08:01:06.246Z,331.88
2019-05-05T08:02:06.248Z,73.13
2019-05-05T08:03:06.218Z,67.50
2019-05-05T08:04:06.209Z,337.50
2019-05-05T08:05:06.200Z,337.50
2019-05-05T08:06:06.183Z,326.25
2019-05-05T08:07:06.193Z,202.50
2019-05-05T08:08:06.155Z,360.00
2019-05-05T08:09:06.146Z,365.63
2019-05-05T08:10:06.131Z,365.63
2019-05-05T08:11:06.132Z,371.25
2019-05-05T08:12:06.114Z,371.25
2019-05-05T08:13:06.090Z,365.63
2019-05-05T08:14:06.080Z,371.25
2019-05-05T08:15:06.075Z,73.13
2019-05-05T08:16:06.063Z,129.38
2019-05-05T08:17:06.050Z,376.88
2019-05-05T08:18:06.043Z,376.88
2019-05-05T08:19:06.030Z,371.25
2019-05-05T08:20:06.032Z,376.88
2019-05-05T08:21:06.000Z,376.88
2019-05-05T08:22:06.218Z,365.63
2019-05-05T08:23:08.249Z,360.00
2019-05-05T08:24:05.972Z,365.63
2019-05-05T08:25:05.969Z,360.00
2019-05-05T08:26:05.951Z,354.38
2019-05-05T08:27:05.968Z,348.75
2019-05-05T08:28:05.927Z,348.75
2019-05-05T08:29:05.930Z,348.75
2019-05-05T08:30:05.908Z,348.75
2019-05-05T08:31:05.895Z,354.38
2019-05-05T08:32:05.892Z,354.38
2019-05-05T08:33:05.874Z,286.88
2019-05-05T08:34:05.873Z,337.50
2019-05-05T08:35:05.858Z,348.75
2019-05-05T08:36:05.863Z,73.13
2019-05-05T08:37:05.841Z,213.75
2019-05-05T08:38:05.832Z,360.00
2019-05-05T08:39:05.814Z,360.00
2019-05-05T08:40:05.811Z,337.50
2019-05-05T08:41:05.799Z,151.88
2019-05-05T08:42:05.798Z,354.38
2019-05-05T08:43:05.788Z,348.75
2019-05-05T08:44:05.770Z,348.75
2019-05-05T08:45:05.761Z,343.13
2019-05-05T08:46:05.763Z,354.38
2019-05-05T08:47:05.749Z,129.38
2019-05-05T08:48:05.756Z,67.50
2019-05-05T08:49:05.728Z,61.88
2019-05-05T08:50:05.722Z,67.50
2019-05-05T08:51:05.710Z,118.13
2019-05-05T08:52:05.721Z,309.38
2019-05-05T08:53:08.401Z,225.00
2019-05-05T08:54:05.680Z,90.00
2019-05-05T08:55:05.670Z,78.75
2019-05-05T08:56:05.664Z,73.13
2019-05-05T08:57:05.662Z,67.50
2019-05-05T08:58:05.640Z,67.50
2019-05-05T08:59:05.653Z,73.13
2019-05-05T09:00:05.648Z,78.75
2019-05-05T09:01:05.600Z,73.13
2019-05-05T09:02:05.602Z,78.75
2019-05-05T09:03:05.585Z,354.38
2019-05-05T09:04:05.571Z,185.63
2019-05-05T09:05:05.561Z,84.38
2019-05-05T09:06:05.561Z,67.50
2019-05-05T09:07:05.592Z,67.50
2019-05-05T09:08:05.524Z,331.88
2019-05-05T09:09:05.514Z,78.75
2019-05-05T09:10:05.500Z,67.50
2019-05-05T09:11:05.492Z,67.50
2019-05-05T09:12:05.474Z,67.50
2019-05-05T09:13:05.462Z,78.75
2019-05-05T09:14:05.448Z,348.75
2019-05-05T09:15:05.436Z,78.75
2019-05-05T09:16:05.430Z,348.75
2019-05-05T09:17:05.406Z,157.50
2019-05-05T09:18:05.396Z,151.88
2019-05-05T09:19:05.513Z,360.00
2019-05-05T09:20:05.366Z,230.63
2019-05-05T09:21:05.358Z,101.25
2019-05-05T09:22:08.608Z,118.13
2019-05-05T09:23:05.350Z,163.13
2019-05-05T09:24:05.450Z,129.38
2019-05-05T09:25:05.308Z,382.50
2019-05-05T09:26:05.295Z,382.50
2019-05-05T09:27:05.278Z,376.88
2019-05-05T09:28:06.145Z,371.25
2019-05-05T09:29:05.247Z,331.88
2019-05-05T09:30:05.237Z,365.63
2019-05-05T09:31:05.224Z,365.63
2019-05-05T09:32:05.218Z,365.63
2019-05-05T09:33:05.213Z,371.25
2019-05-05T09:34:05.196Z,371.25
2019-05-05T09:35:05.180Z,303.75
2019-05-05T09:36:05.167Z,95.63
2019-05-05T09:37:05.163Z,106.88
2019-05-05T09:38:05.143Z,292.50
2019-05-05T09:39:05.133Z,371.25
2019-05-05T09:40:05.126Z,371.25
2019-05-05T09:41:05.114Z,382.50
2019-05-05T09:42:05.113Z,303.75
2019-05-05T09:43:05.121Z,315.00
2019-05-05T09:44:05.096Z,331.88
2019-05-05T09:45:05.080Z,264.38
2019-05-05T09:46:05.067Z,354.38
2019-05-05T09:47:05.088Z,371.25
2019-05-05T09:48:05.148Z,365.63
2019-05-05T09:49:05.040Z,365.63
2019-05-05T09:50:05.025Z,365.63
2019-05-05T09:51:05.038Z,365.63
2019-05-05T09:52:05.158Z,382.50
2019-05-05T09:53:05.009Z,388.13
2019-05-05T09:54:14.101Z,399.38
2019-05-05T09:55:04.992Z,219.38
2019-05-05T09:56:04.999Z,146.25
2019-05-05T09:57:04.978Z,354.38
2019-05-05T09:58:04.965Z,135.00
2019-05-05T09:59:04.970Z,365.63
2019-05-05T10:00:04.955Z,157.50
2019-05-05T10:01:04.975Z,129.38
2019-05-05T10:02:04.949Z,118.13
2019-05-05T10:03:04.928Z,112.50
2019-05-05T10:04:04.922Z,112.50
2019-05-05T10:05:04.916Z,129.38
2019-05-05T10:06:05.231Z,118.13
2019-05-05T10:07:04.949Z,123.75
2019-05-05T10:08:04.917Z,146.25
2019-05-05T10:09:04.883Z,106.88
2019-05-05T10:10:04.875Z,101.25
2019-05-05T10:11:04.869Z,101.25
2019-05-05T10:12:05.003Z,101.25
2019-05-05T10:13:04.846Z,90.00
2019-05-05T10:14:04.850Z,84.38
2019-05-05T10:15:07.509Z,78.75
2019-05-05T10:16:04.842Z,78.75
2019-05-05T10:17:05.070Z,67.50
2019-05-05T10:18:04.804Z,61.88
2019-05-05T10:19:04.834Z,61.88
2019-05-05T10:20:04.779Z,56.25
2019-05-05T10:21:04.813Z,56.25
2019-05-05T10:22:04.756Z,56.25
2019-05-05T10:23:04.762Z,50.63
2019-05-05T10:24:04.735Z,50.63
2019-05-05T10:25:04.721Z,50.63
2019-05-05T10:26:04.724Z,50.63
2019-05-05T10:27:05.021Z,50.63
2019-05-05T10:28:04.694Z,50.63
2019-05-05T10:29:04.669Z,50.63
2019-05-05T10:30:04.659Z,56.25
2019-05-05T10:31:04.816Z,56.25
2019-05-05T10:32:04.792Z,56.25
2019-05-05T10:33:04.623Z,56.25
2019-05-05T10:34:04.650Z,56.25
2019-05-05T10:35:04.838Z,50.63
2019-05-05T10:36:04.584Z,50.63
2019-05-05T10:37:04.580Z,50.63
2019-05-05T10:38:04.578Z,45.00
2019-05-05T10:39:04.539Z,45.00
2019-05-05T10:40:04.530Z,45.00
2019-05-05T10:41:04.515Z,50.63
2019-05-05T10:42:04.515Z,50.63
2019-05-05T10:43:04.681Z,50.63
2019-05-05T10:44:04.478Z,50.63
2019-05-05T10:45:04.478Z,56.25
2019-05-05T10:46:04.447Z,56.25
2019-05-05T10:47:04.774Z,56.25
2019-05-05T10:48:04.417Z,61.88
2019-05-05T10:49:04.417Z,67.50
2019-05-05T10:50:05.016Z,78.75
2019-05-05T10:51:04.413Z,84.38
2019-05-05T10:52:04.361Z,90.00
2019-05-05T10:53:04.819Z,101.25
2019-05-05T10:54:04.326Z,106.88
2019-05-05T10:55:04.327Z,112.50
2019-05-05T10:56:04.528Z,123.75
2019-05-05T10:57:04.318Z,129.38
2019-05-05T10:58:04.287Z,140.63
2019-05-05T10:59:04.259Z,151.88
2019-05-05T11:00:12.191Z,174.38
2019-05-05T11:01:04.435Z,174.38
2019-05-05T11:02:04.919Z,180.00
2019-05-05T11:03:04.207Z,202.50
2019-05-05T11:04:04.204Z,315.00
2019-05-05T11:05:04.192Z,427.50
2019-05-05T11:06:04.639Z,427.50
2019-05-05T11:07:04.407Z,208.13
2019-05-05T11:08:04.419Z,157.50
2019-05-05T11:09:04.452Z,151.88
2019-05-05T11:10:04.110Z,146.25
2019-05-05T11:11:04.385Z,146.25
2019-05-05T11:12:04.081Z,135.00
2019-05-05T11:13:04.088Z,123.75
2019-05-05T11:14:04.067Z,135.00
2019-05-05T11:15:04.155Z,146.25
2019-05-05T11:16:04.130Z,180.00
2019-05-05T11:17:04.332Z,421.88
2019-05-05T11:18:04.185Z,348.75
2019-05-05T11:19:04.399Z,241.88
2019-05-05T11:20:03.992Z,320.63
2019-05-05T11:21:04.127Z,202.50
2019-05-05T11:22:03.965Z,157.50
2019-05-05T11:23:04.913Z,163.13
2019-05-05T11:24:03.941Z,174.38
2019-05-05T11:25:05.099Z,168.75
2019-05-05T11:26:03.927Z,163.13
2019-05-05T11:27:04.532Z,174.38
2019-05-05T11:28:03.902Z,191.25
2019-05-05T11:29:04.297Z,202.50
2019-05-05T11:30:04.119Z,354.38
2019-05-05T11:31:04.450Z,264.38
2019-05-05T11:32:03.866Z,450.00
2019-05-05T11:33:04.115Z,444.38
2019-05-05T11:34:03.836Z,444.38
2019-05-05T11:35:04.741Z,455.63
2019-05-05T11:36:04.446Z,219.38
2019-05-05T11:37:03.826Z,180.00
2019-05-05T11:38:03.803Z,157.50
2019-05-05T11:39:04.080Z,180.00
2019-05-05T11:40:04.234Z,157.50
2019-05-05T11:41:04.941Z,146.25
2019-05-05T11:42:04.443Z,140.63
2019-05-05T11:43:03.913Z,140.63
2019-05-05T11:44:04.141Z,140.63
2019-05-05T11:45:04.278Z,140.63
2019-05-05T11:46:03.732Z,146.25
2019-05-05T11:47:03.830Z,151.88
2019-05-05T11:48:03.722Z,309.38
2019-05-05T11:49:04.955Z,421.88
2019-05-05T11:50:04.337Z,208.13
2019-05-05T11:51:04.505Z,157.50
2019-05-05T11:52:04.610Z,151.88
2019-05-05T11:53:03.953Z,174.38
2019-05-05T11:54:04.677Z,202.50
2019-05-05T11:55:11.669Z,191.25
2019-05-05T11:56:04.311Z,168.75
2019-05-05T11:57:04.333Z,140.63
2019-05-05T11:58:03.721Z,129.38
2019-05-05T11:59:04.038Z,118.13
2019-05-05T12:00:03.894Z,112.50
2019-05-05T12:01:03.913Z,106.88
2019-05-05T12:02:03.853Z,106.88
2019-05-05T12:03:03.944Z,101.25
2019-05-05T12:04:04.177Z,95.63
2019-05-05T12:05:04.548Z,84.38
2019-05-05T12:06:04.118Z,78.75
2019-05-05T12:07:04.192Z,73.13
2019-05-05T12:08:03.961Z,73.13
2019-05-05T12:09:03.564Z,67.50
2019-05-05T12:10:03.542Z,67.50
2019-05-05T12:11:04.634Z,73.13
2019-05-05T12:12:03.841Z,73.13
2019-05-05T12:13:04.105Z,78.75
2019-05-05T12:14:03.855Z,84.38
2019-05-05T12:15:04.311Z,84.38
2019-05-05T12:16:04.536Z,84.38
2019-05-05T12:17:04.567Z,84.38
2019-05-05T12:18:03.870Z,78.75
2019-05-05T12:19:03.445Z,78.75
2019-05-05T12:20:04.753Z,78.75
2019-05-05T12:21:05.228Z,78.75
2019-05-05T12:22:03.414Z,84.38
2019-05-05T12:23:04.634Z,90.00
2019-05-05T12:24:03.867Z,95.63
2019-05-05T12:25:04.117Z,101.25
2019-05-05T12:26:04.694Z,101.25
2019-05-05T12:27:03.774Z,95.63
2019-05-05T12:28:04.468Z,90.00
2019-05-05T12:29:03.335Z,90.00
2019-05-05T12:30:03.893Z,84.38
2019-05-05T12:31:03.617Z,84.38
2019-05-05T12:32:03.279Z,78.75
2019-05-05T12:33:04.771Z,78.75
2019-05-05T12:34:03.934Z,78.75
2019-05-05T12:35:04.238Z,78.75
2019-05-05T12:36:04.411Z,78.75
2019-05-05T12:37:05.182Z,84.38
2019-05-05T12:38:03.220Z,84.38
2019-05-05T12:39:03.730Z,90.00
2019-05-05T12:40:03.962Z,95.63
2019-05-05T12:41:04.355Z,95.63
2019-05-05T12:42:04.776Z,106.88
2019-05-05T12:44:53.752Z,135.00
2019-05-05T12:45:53.971Z,151.88
2019-05-05T12:48:04.500Z,185.63
2019-05-05T12:51:04.163Z,123.75
2019-05-05T12:52:04.624Z,112.50
2019-05-05T12:54:25.060Z,90.00
2019-05-05T12:55:38.249Z,84.38
2019-05-05T12:57:31.358Z,73.13
2019-05-05T12:58:33.462Z,67.50
2019-05-05T13:00:35.390Z,61.88
2019-05-05T13:01:35.370Z,56.25
2019-05-05T13:02:35.350Z,56.25
2019-05-05T13:03:35.333Z,56.25
2019-05-05T13:04:35.315Z,56.25
2019-05-05T13:05:35.323Z,56.25
2019-05-05T13:06:35.294Z,56.25
2019-05-05T13:07:35.277Z,56.25
2019-05-05T13:08:35.269Z,56.25
2019-05-05T13:09:35.255Z,56.25
2019-05-05T13:10:35.241Z,56.25
2019-05-05T13:11:35.230Z,56.25
2019-05-05T13:12:35.212Z,61.88
2019-05-05T13:13:35.199Z,67.50
2019-05-05T13:14:35.182Z,67.50
2019-05-05T13:15:35.176Z,73.13
2019-05-05T13:16:35.160Z,78.75
2019-05-05T13:17:35.149Z,84.38
2019-05-05T13:18:35.133Z,95.63
2019-05-05T13:19:35.123Z,101.25
2019-05-05T13:20:35.102Z,106.88
2019-05-05T13:21:35.108Z,112.50
2019-05-05T13:22:35.081Z,118.13
2019-05-05T13:23:35.066Z,123.75
2019-05-05T13:24:35.110Z,118.13
2019-05-05T13:25:35.038Z,112.50
2019-05-05T13:26:35.023Z,118.13
2019-05-05T13:27:35.032Z,112.50
2019-05-05T13:28:35.016Z,106.88
2019-05-05T13:29:34.979Z,106.88
2019-05-05T13:30:34.970Z,101.25
2019-05-05T13:31:34.956Z,106.88
2019-05-05T13:41:13.265Z,714.38
2019-05-05T13:42:13.821Z,641.25
2019-05-05T13:43:14.448Z,180.00
2019-05-05T13:44:14.836Z,455.63
2019-05-05T13:45:14.504Z,697.50
2019-05-05T13:46:13.964Z,264.38
2019-05-05T13:47:13.182Z,174.38
2019-05-05T13:48:14.084Z,180.00
2019-05-05T13:49:13.485Z,180.00
2019-05-05T13:50:14.197Z,163.13
2019-05-05T13:51:14.717Z,185.63
2019-05-05T13:52:13.893Z,208.13
2019-05-05T13:53:14.395Z,174.38
2019-05-05T13:54:13.641Z,163.13
2019-05-05T13:55:13.896Z,135.00
2019-05-05T13:56:15.344Z,129.38
2019-05-05T13:57:14.429Z,123.75
2019-05-05T13:58:14.664Z,118.13
2019-05-05T13:59:14.093Z,112.50
2019-05-05T14:00:14.107Z,106.88
2019-05-05T14:01:14.488Z,101.25
2019-05-05T14:02:13.806Z,95.63
2019-05-05T14:03:13.034Z,90.00
2019-05-05T14:04:13.021Z,90.00
2019-05-05T14:05:13.553Z,90.00
2019-05-05T14:06:13.786Z,84.38
2019-05-05T14:07:13.000Z,84.38
2019-05-05T14:08:14.714Z,84.38
2019-05-05T14:09:13.783Z,78.75
2019-05-05T14:10:14.434Z,78.75
2019-05-05T14:11:14.254Z,78.75
2019-05-05T14:12:14.633Z,73.13
2019-05-05T14:13:15.114Z,73.13
2019-05-05T14:14:13.815Z,67.50
2019-05-05T14:15:12.909Z,67.50
2019-05-05T14:16:14.311Z,67.50
2019-05-05T14:17:14.722Z,67.50
2019-05-05T14:18:14.279Z,67.50
2019-05-05T14:19:14.624Z,67.50
2019-05-05T14:20:14.648Z,67.50
2019-05-05T14:21:14.049Z,67.50
2019-05-05T14:22:12.828Z,67.50
2019-05-05T14:23:14.775Z,73.13
2019-05-05T14:24:14.367Z,73.13
2019-05-05T14:25:13.555Z,73.13
2019-05-05T14:26:25.010Z,73.13
2019-05-05T14:27:14.484Z,73.13
2019-05-05T14:28:14.123Z,73.13
2019-05-05T14:29:14.525Z,73.13
2019-05-05T14:30:14.331Z,78.75
2019-05-05T14:31:14.101Z,84.38
2019-05-05T14:32:13.521Z,118.13
2019-05-05T14:33:12.686Z,157.50
2019-05-05T14:34:13.963Z,196.88
2019-05-05T14:35:14.284Z,382.50
2019-05-05T14:36:13.807Z,174.38
2019-05-05T14:37:14.272Z,185.63
2019-05-05T14:38:14.466Z,230.63
2019-05-05T14:39:14.643Z,241.88
2019-05-05T14:40:12.596Z,286.88
2019-05-05T14:41:13.602Z,528.75
2019-05-05T14:42:14.610Z,545.63
2019-05-05T14:43:13.355Z,540.00